sensor_id;sensor_type;location;lat;lon;timestamp;temperature;humidity
39453;DHT22;25154;-33.684;151.102;2022-09-11T00:00:05;16.00;99.90
39453;DHT22;25154;-33.684;151.102;2022-09-11T00:05:07;16.20;99.90
39453;DHT22;25154;-33.684;151.102;2022-09-11T00:10:11;16.30;98.80
39453;DHT22;25154;-33.684;151.102;2022-09-11T00:15:13;15.90;98.70
39453;DHT22;25154;-33.684;151.102;2022-09-11T00:20:15;16.50;99.00
39453;DHT22;25154;-33.684;151.102;2022-09-11T00:25:17;16.10;98.70
39453;DHT22;25154;-33.684;151.102;2022-09-11T00:30:20;16.20;98.30
39453;DHT22;25154;-33.684;151.102;2022-09-11T00:35:23;16.70;97.70
39453;DHT22;25154;-33.684;151.102;2022-09-11T00:40:26;16.80;97.20
39453;DHT22;25154;-33.684;151.102;2022-09-11T00:45:28;17.10;98.00
39453;DHT22;25154;-33.684;151.102;2022-09-11T00:50:32;17.30;97.40
39453;DHT22;25154;-33.684;151.102;2022-09-11T00:55:37;17.60;95.50
39453;DHT22;25154;-33.684;151.102;2022-09-11T01:00:44;17.40;96.10
39453;DHT22;25154;-33.684;151.102;2022-09-11T01:05:46;17.90;97.10
39453;DHT22;25154;-33.684;151.102;2022-09-11T01:11:04;18.10;95.20
39453;DHT22;25154;-33.684;151.102;2022-09-11T01:16:34;17.90;93.50
39453;DHT22;25154;-33.684;151.102;2022-09-11T01:21:50;17.80;95.30
39453;DHT22;25154;-33.684;151.102;2022-09-11T01:32:51;18.20;93.60
39453;DHT22;25154;-33.684;151.102;2022-09-11T01:43:25;18.40;93.30
39453;DHT22;25154;-33.684;151.102;2022-09-11T01:48:43;18.70;92.00
39453;DHT22;25154;-33.684;151.102;2022-09-11T01:53:45;18.60;92.20
39453;DHT22;25154;-33.684;151.102;2022-09-11T01:58:52;18.90;92.60
39453;DHT22;25154;-33.684;151.102;2022-09-11T02:04:39;19.20;92.50
39453;DHT22;25154;-33.684;151.102;2022-09-11T02:09:51;19.40;90.60
39453;DHT22;25154;-33.684;151.102;2022-09-11T02:14:55;19.80;90.40
39453;DHT22;25154;-33.684;151.102;2022-09-11T02:19:58;19.90;90.80
39453;DHT22;25154;-33.684;151.102;2022-09-11T02:25:02;19.80;91.30
39453;DHT22;25154;-33.684;151.102;2022-09-11T02:30:05;20.20;90.70
39453;DHT22;25154;-33.684;151.102;2022-09-11T02:35:08;19.70;88.70
39453;DHT22;25154;-33.684;151.102;2022-09-11T02:51:22;21.00;89.60
39453;DHT22;25154;-33.684;151.102;2022-09-11T02:56:40;20.30;84.60
39453;DHT22;25154;-33.684;151.102;2022-09-11T03:01:54;20.60;86.50
39453;DHT22;25154;-33.684;151.102;2022-09-11T03:06:59;21.20;86.10
39453;DHT22;25154;-33.684;151.102;2022-09-11T03:12:02;20.80;83.50
39453;DHT22;25154;-33.684;151.102;2022-09-11T03:17:05;20.70;80.80
39453;DHT22;25154;-33.684;151.102;2022-09-11T03:22:08;20.80;79.30
39453;DHT22;25154;-33.684;151.102;2022-09-11T03:27:10;20.70;82.80
39453;DHT22;25154;-33.684;151.102;2022-09-11T03:32:12;21.00;83.20
39453;DHT22;25154;-33.684;151.102;2022-09-11T03:37:16;21.10;81.00
39453;DHT22;25154;-33.684;151.102;2022-09-11T03:42:19;21.30;80.00
39453;DHT22;25154;-33.684;151.102;2022-09-11T03:47:21;21.70;82.20
39453;DHT22;25154;-33.684;151.102;2022-09-11T03:52:23;21.40;81.80
39453;DHT22;25154;-33.684;151.102;2022-09-11T03:57:26;21.10;80.20
39453;DHT22;25154;-33.684;151.102;2022-09-11T04:02:28;21.60;81.00
39453;DHT22;25154;-33.684;151.102;2022-09-11T04:07:32;21.80;82.80
39453;DHT22;25154;-33.684;151.102;2022-09-11T04:12:35;22.10;79.20
39453;DHT22;25154;-33.684;151.102;2022-09-11T04:17:37;23.20;79.80
39453;DHT22;25154;-33.684;151.102;2022-09-11T04:22:39;24.10;76.60
39453;DHT22;25154;-33.684;151.102;2022-09-11T04:27:42;23.60;79.60
39453;DHT22;25154;-33.684;151.102;2022-09-11T04:32:44;24.50;76.80
39453;DHT22;25154;-33.684;151.102;2022-09-11T04:37:47;24.50;77.80
39453;DHT22;25154;-33.684;151.102;2022-09-11T04:42:49;24.70;77.00
39453;DHT22;25154;-33.684;151.102;2022-09-11T04:47:51;26.00;83.00
39453;DHT22;25154;-33.684;151.102;2022-09-11T04:52:54;26.90;78.80
39453;DHT22;25154;-33.684;151.102;2022-09-11T04:57:56;27.20;76.20
39453;DHT22;25154;-33.684;151.102;2022-09-11T05:02:59;27.50;75.50
39453;DHT22;25154;-33.684;151.102;2022-09-11T05:08:02;26.70;73.70
39453;DHT22;25154;-33.684;151.102;2022-09-11T05:13:04;26.70;74.10
39453;DHT22;25154;-33.684;151.102;2022-09-11T05:18:10;26.70;72.20
39453;DHT22;25154;-33.684;151.102;2022-09-11T05:23:14;26.40;73.40
39453;DHT22;25154;-33.684;151.102;2022-09-11T05:28:18;27.10;75.10
39453;DHT22;25154;-33.684;151.102;2022-09-11T05:33:23;27.70;72.70
39453;DHT22;25154;-33.684;151.102;2022-09-11T05:38:25;27.80;72.70
39453;DHT22;25154;-33.684;151.102;2022-09-11T05:43:28;27.20;76.20
39453;DHT22;25154;-33.684;151.102;2022-09-11T05:48:31;27.60;75.40
39453;DHT22;25154;-33.684;151.102;2022-09-11T05:53:34;28.30;72.60
39453;DHT22;25154;-33.684;151.102;2022-09-11T05:58:36;28.00;70.20
39453;DHT22;25154;-33.684;151.102;2022-09-11T06:03:40;27.60;72.10
39453;DHT22;25154;-33.684;151.102;2022-09-11T06:08:43;27.50;70.50
39453;DHT22;25154;-33.684;151.102;2022-09-11T06:13:46;27.50;72.30
39453;DHT22;25154;-33.684;151.102;2022-09-11T06:18:50;27.50;71.70
39453;DHT22;25154;-33.684;151.102;2022-09-11T06:23:52;27.90;72.70
39453;DHT22;25154;-33.684;151.102;2022-09-11T06:28:55;27.80;70.60
39453;DHT22;25154;-33.684;151.102;2022-09-11T06:33:57;26.60;72.40
39453;DHT22;25154;-33.684;151.102;2022-09-11T06:39:00;26.90;76.90
39453;DHT22;25154;-33.684;151.102;2022-09-11T06:44:03;27.00;75.90
39453;DHT22;25154;-33.684;151.102;2022-09-11T06:49:13;26.90;73.70
39453;DHT22;25154;-33.684;151.102;2022-09-11T06:54:15;26.80;74.00
39453;DHT22;25154;-33.684;151.102;2022-09-11T06:59:18;26.20;74.00
39453;DHT22;25154;-33.684;151.102;2022-09-11T07:04:24;25.40;73.80
39453;DHT22;25154;-33.684;151.102;2022-09-11T07:09:26;23.60;77.50
39453;DHT22;25154;-33.684;151.102;2022-09-11T07:14:28;22.10;79.50
39453;DHT22;25154;-33.684;151.102;2022-09-11T07:19:31;21.00;83.10
39453;DHT22;25154;-33.684;151.102;2022-09-11T07:24:34;20.10;85.90
39453;DHT22;25154;-33.684;151.102;2022-09-11T07:29:36;19.50;90.50
39453;DHT22;25154;-33.684;151.102;2022-09-11T07:34:38;18.90;91.00
39453;DHT22;25154;-33.684;151.102;2022-09-11T07:39:41;18.40;94.90
39453;DHT22;25154;-33.684;151.102;2022-09-11T07:44:43;17.90;97.30
39453;DHT22;25154;-33.684;151.102;2022-09-11T07:49:46;17.30;99.90
39453;DHT22;25154;-33.684;151.102;2022-09-11T07:54:48;16.80;99.90
39453;DHT22;25154;-33.684;151.102;2022-09-11T07:59:51;16.30;99.90
39453;DHT22;25154;-33.684;151.102;2022-09-11T08:04:53;15.90;99.90
39453;DHT22;25154;-33.684;151.102;2022-09-11T08:09:56;15.60;99.90
39453;DHT22;25154;-33.684;151.102;2022-09-11T08:14:58;15.40;99.90
39453;DHT22;25154;-33.684;151.102;2022-09-11T08:20:00;15.30;99.90
39453;DHT22;25154;-33.684;151.102;2022-09-11T08:25:03;15.30;99.90
39453;DHT22;25154;-33.684;151.102;2022-09-11T08:30:06;15.20;99.90
39453;DHT22;25154;-33.684;151.102;2022-09-11T08:35:09;15.10;99.90
39453;DHT22;25154;-33.684;151.102;2022-09-11T08:40:12;15.40;98.80
39453;DHT22;25154;-33.684;151.102;2022-09-11T08:45:17;15.60;98.10
39453;DHT22;25154;-33.684;151.102;2022-09-11T08:55:37;15.60;98.90
39453;DHT22;25154;-33.684;151.102;2022-09-11T09:01:03;15.10;98.40
39453;DHT22;25154;-33.684;151.102;2022-09-11T09:17:45;14.90;98.10
39453;DHT22;25154;-33.684;151.102;2022-09-11T09:22:57;14.80;98.40
39453;DHT22;25154;-33.684;151.102;2022-09-11T09:33:21;14.70;98.20
39453;DHT22;25154;-33.684;151.102;2022-09-11T09:38:28;14.70;97.50
39453;DHT22;25154;-33.684;151.102;2022-09-11T09:43:39;14.80;97.10
39453;DHT22;25154;-33.684;151.102;2022-09-11T09:48:47;14.80;96.70
39453;DHT22;25154;-33.684;151.102;2022-09-11T09:54:00;14.80;96.80
39453;DHT22;25154;-33.684;151.102;2022-09-11T09:59:27;14.80;96.20
39453;DHT22;25154;-33.684;151.102;2022-09-11T10:04:31;14.80;96.00
39453;DHT22;25154;-33.684;151.102;2022-09-11T10:09:34;14.70;96.20
39453;DHT22;25154;-33.684;151.102;2022-09-11T10:25:27;14.40;96.70
39453;DHT22;25154;-33.684;151.102;2022-09-11T10:30:39;14.30;97.10
39453;DHT22;25154;-33.684;151.102;2022-09-11T10:35:50;14.10;97.60
39453;DHT22;25154;-33.684;151.102;2022-09-11T10:41:08;13.90;97.90
39453;DHT22;25154;-33.684;151.102;2022-09-11T10:51:22;13.60;99.40
39453;DHT22;25154;-33.684;151.102;2022-09-11T10:56:25;13.30;99.90
39453;DHT22;25154;-33.684;151.102;2022-09-11T11:01:28;13.10;99.90
39453;DHT22;25154;-33.684;151.102;2022-09-11T11:07:09;13.20;99.90
39453;DHT22;25154;-33.684;151.102;2022-09-11T11:13:02;13.10;99.90
39453;DHT22;25154;-33.684;151.102;2022-09-11T11:28:47;12.70;99.90
39453;DHT22;25154;-33.684;151.102;2022-09-11T11:39:35;12.50;99.90
39453;DHT22;25154;-33.684;151.102;2022-09-11T11:45:01;12.60;99.90
39453;DHT22;25154;-33.684;151.102;2022-09-11T11:56:06;12.70;99.90
39453;DHT22;25154;-33.684;151.102;2022-09-11T12:01:10;12.60;99.90
39453;DHT22;25154;-33.684;151.102;2022-09-11T12:06:15;12.40;99.90
39453;DHT22;25154;-33.684;151.102;2022-09-11T12:11:27;12.30;99.90
39453;DHT22;25154;-33.684;151.102;2022-09-11T12:16:32;12.30;99.90
39453;DHT22;25154;-33.684;151.102;2022-09-11T12:21:42;12.20;99.90
39453;DHT22;25154;-33.684;151.102;2022-09-11T12:27:31;12.00;99.90
39453;DHT22;25154;-33.684;151.102;2022-09-11T12:32:51;11.90;99.90
39453;DHT22;25154;-33.684;151.102;2022-09-11T12:38:03;11.60;99.90
39453;DHT22;25154;-33.684;151.102;2022-09-11T12:43:26;11.40;99.90
39453;DHT22;25154;-33.684;151.102;2022-09-11T12:48:41;11.20;99.90
39453;DHT22;25154;-33.684;151.102;2022-09-11T12:53:47;10.80;99.90
39453;DHT22;25154;-33.684;151.102;2022-09-11T12:59:03;10.50;99.90
39453;DHT22;25154;-33.684;151.102;2022-09-11T13:09:21;10.20;99.90
39453;DHT22;25154;-33.684;151.102;2022-09-11T13:19:36;9.90;99.90
39453;DHT22;25154;-33.684;151.102;2022-09-11T13:24:38;9.80;99.90
39453;DHT22;25154;-33.684;151.102;2022-09-11T13:29:42;9.70;99.90
39453;DHT22;25154;-33.684;151.102;2022-09-11T13:34:52;9.60;99.90
39453;DHT22;25154;-33.684;151.102;2022-09-11T13:40:00;9.40;99.90
39453;DHT22;25154;-33.684;151.102;2022-09-11T13:45:05;9.40;99.90
39453;DHT22;25154;-33.684;151.102;2022-09-11T13:50:17;9.40;99.90
39453;DHT22;25154;-33.684;151.102;2022-09-11T13:55:25;9.30;99.90
39453;DHT22;25154;-33.684;151.102;2022-09-11T14:00:44;9.20;99.90
39453;DHT22;25154;-33.684;151.102;2022-09-11T14:05:52;9.00;99.90
39453;DHT22;25154;-33.684;151.102;2022-09-11T14:11:12;8.90;99.90
39453;DHT22;25154;-33.684;151.102;2022-09-11T14:16:32;8.90;99.90
39453;DHT22;25154;-33.684;151.102;2022-09-11T14:21:41;8.90;99.90
39453;DHT22;25154;-33.684;151.102;2022-09-11T14:26:47;8.70;99.90
39453;DHT22;25154;-33.684;151.102;2022-09-11T14:31:51;8.60;99.90
39453;DHT22;25154;-33.684;151.102;2022-09-11T14:37:08;8.50;99.90
39453;DHT22;25154;-33.684;151.102;2022-09-11T14:42:14;8.50;99.90
39453;DHT22;25154;-33.684;151.102;2022-09-11T14:47:23;8.50;99.90
39453;DHT22;25154;-33.684;151.102;2022-09-11T14:52:27;8.20;99.90
39453;DHT22;25154;-33.684;151.102;2022-09-11T14:57:33;8.10;99.90
39453;DHT22;25154;-33.684;151.102;2022-09-11T15:02:36;8.00;99.90
39453;DHT22;25154;-33.684;151.102;2022-09-11T15:07:39;7.90;99.90
39453;DHT22;25154;-33.684;151.102;2022-09-11T15:12:41;7.80;99.90
39453;DHT22;25154;-33.684;151.102;2022-09-11T15:17:45;7.70;99.90
39453;DHT22;25154;-33.684;151.102;2022-09-11T15:22:48;7.50;99.90
39453;DHT22;25154;-33.684;151.102;2022-09-11T15:27:51;7.60;99.90
39453;DHT22;25154;-33.684;151.102;2022-09-11T15:33:04;7.50;99.90
39453;DHT22;25154;-33.684;151.102;2022-09-11T15:38:06;7.60;99.90
39453;DHT22;25154;-33.684;151.102;2022-09-11T15:43:10;7.40;99.90
39453;DHT22;25154;-33.684;151.102;2022-09-11T15:48:13;7.30;99.90
39453;DHT22;25154;-33.684;151.102;2022-09-11T15:53:16;7.10;99.90
39453;DHT22;25154;-33.684;151.102;2022-09-11T15:58:20;6.90;99.90
39453;DHT22;25154;-33.684;151.102;2022-09-11T16:03:31;6.70;99.90
39453;DHT22;25154;-33.684;151.102;2022-09-11T16:08:35;6.70;99.90
39453;DHT22;25154;-33.684;151.102;2022-09-11T16:13:41;7.20;99.90
39453;DHT22;25154;-33.684;151.102;2022-09-11T16:18:44;7.60;99.90
39453;DHT22;25154;-33.684;151.102;2022-09-11T16:23:47;7.80;99.90
39453;DHT22;25154;-33.684;151.102;2022-09-11T16:28:50;7.90;99.90
39453;DHT22;25154;-33.684;151.102;2022-09-11T16:33:54;7.90;99.90
39453;DHT22;25154;-33.684;151.102;2022-09-11T16:38:57;7.90;99.90
39453;DHT22;25154;-33.684;151.102;2022-09-11T16:44:00;7.80;99.90
39453;DHT22;25154;-33.684;151.102;2022-09-11T16:49:04;7.60;99.90
39453;DHT22;25154;-33.684;151.102;2022-09-11T16:54:07;7.60;99.90
39453;DHT22;25154;-33.684;151.102;2022-09-11T16:59:10;7.30;99.90
39453;DHT22;25154;-33.684;151.102;2022-09-11T17:04:12;7.10;99.90
39453;DHT22;25154;-33.684;151.102;2022-09-11T17:09:15;7.00;99.90
39453;DHT22;25154;-33.684;151.102;2022-09-11T17:14:18;7.00;99.90
39453;DHT22;25154;-33.684;151.102;2022-09-11T17:19:22;6.90;99.90
39453;DHT22;25154;-33.684;151.102;2022-09-11T17:24:24;6.90;99.90
39453;DHT22;25154;-33.684;151.102;2022-09-11T17:29:27;6.70;99.90
39453;DHT22;25154;-33.684;151.102;2022-09-11T17:34:30;6.80;99.90
39453;DHT22;25154;-33.684;151.102;2022-09-11T17:39:33;6.70;99.90
39453;DHT22;25154;-33.684;151.102;2022-09-11T17:44:35;6.60;99.90
39453;DHT22;25154;-33.684;151.102;2022-09-11T17:49:38;6.60;99.90
39453;DHT22;25154;-33.684;151.102;2022-09-11T17:54:41;6.80;99.90
39453;DHT22;25154;-33.684;151.102;2022-09-11T17:59:45;7.10;99.90
39453;DHT22;25154;-33.684;151.102;2022-09-11T18:04:50;7.00;99.90
39453;DHT22;25154;-33.684;151.102;2022-09-11T18:09:53;7.00;99.90
39453;DHT22;25154;-33.684;151.102;2022-09-11T18:14:56;6.80;99.90
39453;DHT22;25154;-33.684;151.102;2022-09-11T18:20:01;6.60;99.90
39453;DHT22;25154;-33.684;151.102;2022-09-11T18:25:05;6.60;99.90
39453;DHT22;25154;-33.684;151.102;2022-09-11T18:30:08;6.60;99.90
39453;DHT22;25154;-33.684;151.102;2022-09-11T18:35:11;6.80;99.90
39453;DHT22;25154;-33.684;151.102;2022-09-11T18:40:14;6.70;99.90
39453;DHT22;25154;-33.684;151.102;2022-09-11T18:45:17;6.50;99.90
39453;DHT22;25154;-33.684;151.102;2022-09-11T18:50:22;6.60;99.90
39453;DHT22;25154;-33.684;151.102;2022-09-11T18:55:25;6.60;99.90
39453;DHT22;25154;-33.684;151.102;2022-09-11T19:00:29;6.50;99.90
39453;DHT22;25154;-33.684;151.102;2022-09-11T19:05:32;6.30;99.90
39453;DHT22;25154;-33.684;151.102;2022-09-11T19:10:36;6.20;99.90
39453;DHT22;25154;-33.684;151.102;2022-09-11T19:15:39;6.10;99.90
39453;DHT22;25154;-33.684;151.102;2022-09-11T19:20:41;6.00;99.90
39453;DHT22;25154;-33.684;151.102;2022-09-11T19:25:44;6.00;99.90
39453;DHT22;25154;-33.684;151.102;2022-09-11T19:30:57;5.80;99.90
39453;DHT22;25154;-33.684;151.102;2022-09-11T19:36:05;5.60;99.90
39453;DHT22;25154;-33.684;151.102;2022-09-11T19:41:14;5.60;99.90
39453;DHT22;25154;-33.684;151.102;2022-09-11T19:46:24;5.50;99.90
39453;DHT22;25154;-33.684;151.102;2022-09-11T19:51:31;5.50;99.90
39453;DHT22;25154;-33.684;151.102;2022-09-11T19:56:35;5.30;99.90
39453;DHT22;25154;-33.684;151.102;2022-09-11T20:01:38;5.30;99.90
39453;DHT22;25154;-33.684;151.102;2022-09-11T20:06:41;5.40;99.90
39453;DHT22;25154;-33.684;151.102;2022-09-11T20:11:44;5.30;99.90
39453;DHT22;25154;-33.684;151.102;2022-09-11T20:16:46;5.20;99.90
39453;DHT22;25154;-33.684;151.102;2022-09-11T20:21:49;5.10;99.90
39453;DHT22;25154;-33.684;151.102;2022-09-11T20:26:53;5.20;99.90
39453;DHT22;25154;-33.684;151.102;2022-09-11T20:31:55;5.40;99.90
39453;DHT22;25154;-33.684;151.102;2022-09-11T20:36:58;5.40;99.90
39453;DHT22;25154;-33.684;151.102;2022-09-11T20:42:01;5.40;99.90
39453;DHT22;25154;-33.684;151.102;2022-09-11T20:47:04;5.60;99.90
39453;DHT22;25154;-33.684;151.102;2022-09-11T20:52:09;5.70;99.90
39453;DHT22;25154;-33.684;151.102;2022-09-11T20:57:17;6.00;99.90
39453;DHT22;25154;-33.684;151.102;2022-09-11T21:02:19;6.10;99.90
39453;DHT22;25154;-33.684;151.102;2022-09-11T21:07:22;6.30;99.90
39453;DHT22;25154;-33.684;151.102;2022-09-11T21:12:25;6.50;99.90
39453;DHT22;25154;-33.684;151.102;2022-09-11T21:17:28;6.60;99.90
39453;DHT22;25154;-33.684;151.102;2022-09-11T21:22:31;7.20;99.90
39453;DHT22;25154;-33.684;151.102;2022-09-11T21:27:33;7.50;99.90
39453;DHT22;25154;-33.684;151.102;2022-09-11T21:32:35;8.10;99.90
39453;DHT22;25154;-33.684;151.102;2022-09-11T21:37:38;8.70;99.90
39453;DHT22;25154;-33.684;151.102;2022-09-11T21:42:41;9.30;99.90
39453;DHT22;25154;-33.684;151.102;2022-09-11T21:47:44;9.70;99.90
39453;DHT22;25154;-33.684;151.102;2022-09-11T21:52:47;10.00;99.90
39453;DHT22;25154;-33.684;151.102;2022-09-11T21:57:50;10.20;99.90
39453;DHT22;25154;-33.684;151.102;2022-09-11T22:02:52;10.40;99.90
39453;DHT22;25154;-33.684;151.102;2022-09-11T22:07:55;11.20;99.90
39453;DHT22;25154;-33.684;151.102;2022-09-11T22:12:59;10.90;99.90
39453;DHT22;25154;-33.684;151.102;2022-09-11T22:18:01;11.00;99.90
39453;DHT22;25154;-33.684;151.102;2022-09-11T22:23:06;11.20;99.90
39453;DHT22;25154;-33.684;151.102;2022-09-11T22:28:09;11.50;99.90
39453;DHT22;25154;-33.684;151.102;2022-09-11T22:33:11;11.80;99.90
39453;DHT22;25154;-33.684;151.102;2022-09-11T22:38:14;12.10;99.90
39453;DHT22;25154;-33.684;151.102;2022-09-11T22:43:16;12.20;99.90
39453;DHT22;25154;-33.684;151.102;2022-09-11T22:48:18;12.50;99.90
39453;DHT22;25154;-33.684;151.102;2022-09-11T22:53:21;12.70;99.90
39453;DHT22;25154;-33.684;151.102;2022-09-11T22:58:24;13.00;99.90
39453;DHT22;25154;-33.684;151.102;2022-09-11T23:03:27;13.20;99.90
39453;DHT22;25154;-33.684;151.102;2022-09-11T23:08:34;13.40;99.90
39453;DHT22;25154;-33.684;151.102;2022-09-11T23:13:36;13.30;99.90
39453;DHT22;25154;-33.684;151.102;2022-09-11T23:18:41;13.40;99.90
39453;DHT22;25154;-33.684;151.102;2022-09-11T23:23:47;13.50;99.90
39453;DHT22;25154;-33.684;151.102;2022-09-11T23:28:50;13.70;99.90
39453;DHT22;25154;-33.684;151.102;2022-09-11T23:33:54;13.70;99.90
39453;DHT22;25154;-33.684;151.102;2022-09-11T23:38:57;13.80;99.60
39453;DHT22;25154;-33.684;151.102;2022-09-11T23:44:00;13.90;99.00
39453;DHT22;25154;-33.684;151.102;2022-09-11T23:49:04;14.10;98.80
39453;DHT22;25154;-33.684;151.102;2022-09-11T23:54:08;14.30;98.10
39453;DHT22;25154;-33.684;151.102;2022-09-11T23:59:10;14.70;98.10
